sensor_id;sensor_type;location;lat;lon;timestamp;P1;durP1;ratioP1;P2;durP2;ratioP2
54328;SDS011;40710;51.120;13.136;2022-12-07T00:02:13;17.56;;;16.54;;
54328;SDS011;40710;51.120;13.136;2022-12-07T00:04:38;17.39;;;16.52;;
54328;SDS011;40710;51.120;13.136;2022-12-07T00:07:02;17.73;;;16.77;;
54328;SDS011;40710;51.120;13.136;2022-12-07T00:09:28;16.99;;;16.00;;
54328;SDS011;40710;51.120;13.136;2022-12-07T00:11:52;16.97;;;16.06;;
54328;SDS011;40710;51.120;13.136;2022-12-07T00:14:17;16.53;;;15.78;;
54328;SDS011;40710;51.120;13.136;2022-12-07T00:16:43;16.76;;;16.03;;
54328;SDS011;40710;51.120;13.136;2022-12-07T00:19:09;17.77;;;16.85;;
54328;SDS011;40710;51.120;13.136;2022-12-07T00:21:35;17.33;;;16.48;;
54328;SDS011;40710;51.120;13.136;2022-12-07T00:24:01;16.65;;;15.94;;
54328;SDS011;40710;51.120;13.136;2022-12-07T00:26:27;17.88;;;16.98;;
54328;SDS011;40710;51.120;13.136;2022-12-07T00:28:54;17.73;;;17.06;;
54328;SDS011;40710;51.120;13.136;2022-12-07T00:31:23;17.52;;;16.68;;
54328;SDS011;40710;51.120;13.136;2022-12-07T00:33:49;16.98;;;16.20;;
54328;SDS011;40710;51.120;13.136;2022-12-07T00:36:15;16.28;;;15.75;;
54328;SDS011;40710;51.120;13.136;2022-12-07T00:38:42;16.38;;;15.59;;
54328;SDS011;40710;51.120;13.136;2022-12-07T00:41:10;14.88;;;14.23;;
54328;SDS011;40710;51.120;13.136;2022-12-07T00:43:40;14.00;;;13.39;;
54328;SDS011;40710;51.120;13.136;2022-12-07T00:46:06;13.62;;;13.16;;
54328;SDS011;40710;51.120;13.136;2022-12-07T00:48:31;14.91;;;14.31;;
54328;SDS011;40710;51.120;13.136;2022-12-07T00:50:56;15.20;;;14.60;;
54328;SDS011;40710;51.120;13.136;2022-12-07T00:53:21;13.42;;;13.03;;
54328;SDS011;40710;51.120;13.136;2022-12-07T00:55:46;14.07;;;13.58;;
54328;SDS011;40710;51.120;13.136;2022-12-07T00:58:11;13.21;;;12.71;;
54328;SDS011;40710;51.120;13.136;2022-12-07T01:00:36;13.17;;;12.69;;
54328;SDS011;40710;51.120;13.136;2022-12-07T01:03:04;13.49;;;12.97;;
54328;SDS011;40710;51.120;13.136;2022-12-07T01:05:29;13.45;;;12.97;;
54328;SDS011;40710;51.120;13.136;2022-12-07T01:07:54;13.62;;;13.04;;
54328;SDS011;40710;51.120;13.136;2022-12-07T01:10:18;13.45;;;12.83;;
54328;SDS011;40710;51.120;13.136;2022-12-07T01:12:43;12.91;;;12.29;;
54328;SDS011;40710;51.120;13.136;2022-12-07T01:15:07;12.81;;;12.28;;
54328;SDS011;40710;51.120;13.136;2022-12-07T01:17:32;12.72;;;12.22;;
54328;SDS011;40710;51.120;13.136;2022-12-07T01:19:57;12.83;;;12.27;;
54328;SDS011;40710;51.120;13.136;2022-12-07T01:22:21;13.58;;;12.94;;
54328;SDS011;40710;51.120;13.136;2022-12-07T01:24:46;13.48;;;12.81;;
54328;SDS011;40710;51.120;13.136;2022-12-07T01:27:11;13.35;;;12.86;;
54328;SDS011;40710;51.120;13.136;2022-12-07T01:29:35;13.54;;;12.88;;
54328;SDS011;40710;51.120;13.136;2022-12-07T01:32:00;13.97;;;13.42;;
54328;SDS011;40710;51.120;13.136;2022-12-07T01:34:25;15.35;;;14.81;;
54328;SDS011;40710;51.120;13.136;2022-12-07T01:36:49;16.39;;;15.74;;
54328;SDS011;40710;51.120;13.136;2022-12-07T01:39:14;15.56;;;14.84;;
54328;SDS011;40710;51.120;13.136;2022-12-07T01:41:39;15.11;;;14.41;;
54328;SDS011;40710;51.120;13.136;2022-12-07T01:44:28;15.44;;;14.77;;
54328;SDS011;40710;51.120;13.136;2022-12-07T01:46:57;17.06;;;16.20;;
54328;SDS011;40710;51.120;13.136;2022-12-07T01:52:01;17.63;;;16.77;;
54328;SDS011;40710;51.120;13.136;2022-12-07T01:54:43;19.14;;;18.27;;
54328;SDS011;40710;51.120;13.136;2022-12-07T01:57:11;19.07;;;18.25;;
54328;SDS011;40710;51.120;13.136;2022-12-07T01:59:39;20.15;;;19.42;;
54328;SDS011;40710;51.120;13.136;2022-12-07T02:02:08;20.94;;;19.96;;
54328;SDS011;40710;51.120;13.136;2022-12-07T02:04:42;21.59;;;20.70;;
54328;SDS011;40710;51.120;13.136;2022-12-07T02:07:08;21.84;;;20.86;;
54328;SDS011;40710;51.120;13.136;2022-12-07T02:09:32;21.59;;;20.55;;
54328;SDS011;40710;51.120;13.136;2022-12-07T02:12:00;22.50;;;21.28;;
54328;SDS011;40710;51.120;13.136;2022-12-07T02:14:26;22.87;;;21.76;;
54328;SDS011;40710;51.120;13.136;2022-12-07T02:17:03;22.92;;;21.85;;
54328;SDS011;40710;51.120;13.136;2022-12-07T02:28:25;19.93;;;19.04;;
54328;SDS011;40710;51.120;13.136;2022-12-07T02:30:56;20.56;;;19.62;;
54328;SDS011;40710;51.120;13.136;2022-12-07T02:33:36;20.81;;;19.88;;
54328;SDS011;40710;51.120;13.136;2022-12-07T02:36:08;19.68;;;18.86;;
54328;SDS011;40710;51.120;13.136;2022-12-07T02:38:47;19.46;;;18.51;;
54328;SDS011;40710;51.120;13.136;2022-12-07T02:41:24;19.76;;;18.75;;
54328;SDS011;40710;51.120;13.136;2022-12-07T02:43:56;20.05;;;19.05;;
54328;SDS011;40710;51.120;13.136;2022-12-07T02:46:40;19.68;;;18.74;;
54328;SDS011;40710;51.120;13.136;2022-12-07T02:49:08;19.76;;;18.73;;
54328;SDS011;40710;51.120;13.136;2022-12-07T02:51:38;19.59;;;18.68;;
54328;SDS011;40710;51.120;13.136;2022-12-07T02:54:09;19.95;;;18.93;;
54328;SDS011;40710;51.120;13.136;2022-12-07T02:59:13;18.75;;;18.03;;
54328;SDS011;40710;51.120;13.136;2022-12-07T03:07:51;19.39;;;18.23;;
54328;SDS011;40710;51.120;13.136;2022-12-07T03:10:32;19.49;;;18.47;;
54328;SDS011;40710;51.120;13.136;2022-12-07T03:18:39;19.11;;;18.21;;
54328;SDS011;40710;51.120;13.136;2022-12-07T03:21:12;19.04;;;18.11;;
54328;SDS011;40710;51.120;13.136;2022-12-07T03:23:42;19.23;;;18.38;;
54328;SDS011;40710;51.120;13.136;2022-12-07T03:26:13;18.84;;;17.85;;
54328;SDS011;40710;51.120;13.136;2022-12-07T03:28:45;19.12;;;18.06;;
54328;SDS011;40710;51.120;13.136;2022-12-07T03:31:17;17.79;;;16.96;;
54328;SDS011;40710;51.120;13.136;2022-12-07T03:33:50;18.42;;;17.62;;
54328;SDS011;40710;51.120;13.136;2022-12-07T03:36:26;17.79;;;17.02;;
54328;SDS011;40710;51.120;13.136;2022-12-07T03:39:14;18.00;;;17.17;;
54328;SDS011;40710;51.120;13.136;2022-12-07T03:41:44;17.98;;;17.01;;
54328;SDS011;40710;51.120;13.136;2022-12-07T03:44:09;18.63;;;17.63;;
54328;SDS011;40710;51.120;13.136;2022-12-07T03:51:43;18.75;;;17.82;;
54328;SDS011;40710;51.120;13.136;2022-12-07T03:54:21;18.67;;;17.64;;
54328;SDS011;40710;51.120;13.136;2022-12-07T03:56:50;19.21;;;18.19;;
54328;SDS011;40710;51.120;13.136;2022-12-07T03:59:17;18.18;;;17.43;;
54328;SDS011;40710;51.120;13.136;2022-12-07T04:01:45;18.25;;;17.26;;
54328;SDS011;40710;51.120;13.136;2022-12-07T04:04:17;17.52;;;16.83;;
54328;SDS011;40710;51.120;13.136;2022-12-07T04:06:42;17.29;;;16.58;;
54328;SDS011;40710;51.120;13.136;2022-12-07T04:09:06;16.83;;;15.89;;
54328;SDS011;40710;51.120;13.136;2022-12-07T04:11:31;16.90;;;16.18;;
54328;SDS011;40710;51.120;13.136;2022-12-07T04:13:55;16.64;;;15.92;;
54328;SDS011;40710;51.120;13.136;2022-12-07T04:16:57;16.17;;;15.17;;
54328;SDS011;40710;51.120;13.136;2022-12-07T04:19:23;15.71;;;14.94;;
54328;SDS011;40710;51.120;13.136;2022-12-07T04:21:55;15.10;;;14.43;;
54328;SDS011;40710;51.120;13.136;2022-12-07T04:24:20;14.42;;;13.81;;
54328;SDS011;40710;51.120;13.136;2022-12-07T04:26:46;14.58;;;13.97;;
54328;SDS011;40710;51.120;13.136;2022-12-07T04:29:11;14.10;;;13.56;;
54328;SDS011;40710;51.120;13.136;2022-12-07T04:31:35;13.60;;;13.04;;
54328;SDS011;40710;51.120;13.136;2022-12-07T04:34:00;13.75;;;13.17;;
54328;SDS011;40710;51.120;13.136;2022-12-07T04:36:25;12.93;;;12.39;;
54328;SDS011;40710;51.120;13.136;2022-12-07T04:38:49;12.38;;;11.87;;
54328;SDS011;40710;51.120;13.136;2022-12-07T04:41:16;12.13;;;11.61;;
54328;SDS011;40710;51.120;13.136;2022-12-07T04:43:41;11.98;;;11.48;;
54328;SDS011;40710;51.120;13.136;2022-12-07T04:46:06;11.37;;;10.96;;
54328;SDS011;40710;51.120;13.136;2022-12-07T04:48:32;10.60;;;10.17;;
54328;SDS011;40710;51.120;13.136;2022-12-07T04:50:56;10.29;;;9.88;;
54328;SDS011;40710;51.120;13.136;2022-12-07T04:53:21;10.28;;;9.95;;
54328;SDS011;40710;51.120;13.136;2022-12-07T04:55:46;9.91;;;9.61;;
54328;SDS011;40710;51.120;13.136;2022-12-07T04:58:11;10.46;;;10.01;;
54328;SDS011;40710;51.120;13.136;2022-12-07T05:00:36;10.01;;;9.56;;
54328;SDS011;40710;51.120;13.136;2022-12-07T05:03:01;9.68;;;9.21;;
54328;SDS011;40710;51.120;13.136;2022-12-07T05:05:26;9.07;;;8.74;;
54328;SDS011;40710;51.120;13.136;2022-12-07T05:07:51;9.56;;;9.24;;
54328;SDS011;40710;51.120;13.136;2022-12-07T05:10:15;9.10;;;8.85;;
54328;SDS011;40710;51.120;13.136;2022-12-07T05:12:40;8.66;;;8.38;;
54328;SDS011;40710;51.120;13.136;2022-12-07T05:15:05;9.19;;;8.83;;
54328;SDS011;40710;51.120;13.136;2022-12-07T05:17:29;9.20;;;8.91;;
54328;SDS011;40710;51.120;13.136;2022-12-07T05:19:54;9.15;;;8.92;;
54328;SDS011;40710;51.120;13.136;2022-12-07T05:22:18;9.33;;;9.18;;
54328;SDS011;40710;51.120;13.136;2022-12-07T05:24:43;8.66;;;8.50;;
54328;SDS011;40710;51.120;13.136;2022-12-07T05:27:08;8.38;;;8.08;;
54328;SDS011;40710;51.120;13.136;2022-12-07T05:29:35;8.58;;;8.35;;
54328;SDS011;40710;51.120;13.136;2022-12-07T05:32:00;8.88;;;8.56;;
54328;SDS011;40710;51.120;13.136;2022-12-07T05:34:24;7.65;;;7.45;;
54328;SDS011;40710;51.120;13.136;2022-12-07T05:36:49;7.38;;;7.27;;
54328;SDS011;40710;51.120;13.136;2022-12-07T05:39:14;7.70;;;7.38;;
54328;SDS011;40710;51.120;13.136;2022-12-07T05:41:39;7.88;;;7.70;;
54328;SDS011;40710;51.120;13.136;2022-12-07T05:44:21;8.30;;;8.09;;
54328;SDS011;40710;51.120;13.136;2022-12-07T05:46:46;8.66;;;8.45;;
54328;SDS011;40710;51.120;13.136;2022-12-07T05:49:11;8.38;;;8.33;;
54328;SDS011;40710;51.120;13.136;2022-12-07T05:51:35;8.76;;;8.69;;
54328;SDS011;40710;51.120;13.136;2022-12-07T05:54:00;9.04;;;8.81;;
54328;SDS011;40710;51.120;13.136;2022-12-07T05:56:24;9.58;;;9.20;;
54328;SDS011;40710;51.120;13.136;2022-12-07T05:58:50;10.13;;;9.75;;
54328;SDS011;40710;51.120;13.136;2022-12-07T06:01:33;11.28;;;10.86;;
54328;SDS011;40710;51.120;13.136;2022-12-07T06:04:01;10.93;;;10.48;;
54328;SDS011;40710;51.120;13.136;2022-12-07T06:06:25;11.10;;;10.66;;
54328;SDS011;40710;51.120;13.136;2022-12-07T06:08:50;10.39;;;9.98;;
54328;SDS011;40710;51.120;13.136;2022-12-07T06:11:15;10.58;;;10.16;;
54328;SDS011;40710;51.120;13.136;2022-12-07T06:13:58;10.65;;;10.25;;
54328;SDS011;40710;51.120;13.136;2022-12-07T06:16:23;10.60;;;10.21;;
54328;SDS011;40710;51.120;13.136;2022-12-07T06:18:47;11.36;;;10.94;;
54328;SDS011;40710;51.120;13.136;2022-12-07T06:21:12;10.79;;;10.42;;
54328;SDS011;40710;51.120;13.136;2022-12-07T06:23:36;21.45;;;20.58;;
54328;SDS011;40710;51.120;13.136;2022-12-07T06:26:01;15.54;;;14.82;;
54328;SDS011;40710;51.120;13.136;2022-12-07T06:28:26;10.13;;;9.99;;
54328;SDS011;40710;51.120;13.136;2022-12-07T06:30:57;10.91;;;10.71;;
54328;SDS011;40710;51.120;13.136;2022-12-07T06:33:23;10.46;;;10.09;;
54328;SDS011;40710;51.120;13.136;2022-12-07T06:35:47;10.42;;;10.04;;
54328;SDS011;40710;51.120;13.136;2022-12-07T06:38:12;10.26;;;10.21;;
54328;SDS011;40710;51.120;13.136;2022-12-07T06:40:36;10.44;;;10.32;;
54328;SDS011;40710;51.120;13.136;2022-12-07T06:43:01;10.39;;;10.17;;
54328;SDS011;40710;51.120;13.136;2022-12-07T06:45:26;10.34;;;10.02;;
54328;SDS011;40710;51.120;13.136;2022-12-07T06:47:50;9.78;;;9.54;;
54328;SDS011;40710;51.120;13.136;2022-12-07T06:50:15;9.84;;;9.70;;
54328;SDS011;40710;51.120;13.136;2022-12-07T06:52:39;9.25;;;9.25;;
54328;SDS011;40710;51.120;13.136;2022-12-07T06:55:04;9.69;;;9.55;;
54328;SDS011;40710;51.120;13.136;2022-12-07T06:57:29;14.00;;;13.62;;
54328;SDS011;40710;51.120;13.136;2022-12-07T06:59:53;13.13;;;12.75;;
54328;SDS011;40710;51.120;13.136;2022-12-07T07:02:18;10.01;;;9.74;;
54328;SDS011;40710;51.120;13.136;2022-12-07T07:04:42;10.38;;;10.26;;
54328;SDS011;40710;51.120;13.136;2022-12-07T07:07:07;9.72;;;9.64;;
54328;SDS011;40710;51.120;13.136;2022-12-07T07:09:31;10.27;;;10.04;;
54328;SDS011;40710;51.120;13.136;2022-12-07T07:11:56;11.42;;;11.28;;
54328;SDS011;40710;51.120;13.136;2022-12-07T07:14:20;14.28;;;13.91;;
54328;SDS011;40710;51.120;13.136;2022-12-07T07:16:46;21.61;;;20.67;;
54328;SDS011;40710;51.120;13.136;2022-12-07T07:19:10;14.04;;;13.51;;
54328;SDS011;40710;51.120;13.136;2022-12-07T07:21:36;14.06;;;13.51;;
54328;SDS011;40710;51.120;13.136;2022-12-07T07:24:00;13.65;;;13.31;;
54328;SDS011;40710;51.120;13.136;2022-12-07T07:26:25;15.20;;;14.50;;
54328;SDS011;40710;51.120;13.136;2022-12-07T07:28:50;15.77;;;15.05;;
54328;SDS011;40710;51.120;13.136;2022-12-07T07:31:14;15.81;;;15.24;;
54328;SDS011;40710;51.120;13.136;2022-12-07T07:33:39;16.14;;;15.56;;
54328;SDS011;40710;51.120;13.136;2022-12-07T07:36:03;16.15;;;15.58;;
54328;SDS011;40710;51.120;13.136;2022-12-07T07:38:28;17.15;;;16.49;;
54328;SDS011;40710;51.120;13.136;2022-12-07T07:40:53;18.28;;;17.44;;
54328;SDS011;40710;51.120;13.136;2022-12-07T07:43:17;17.03;;;16.43;;
54328;SDS011;40710;51.120;13.136;2022-12-07T07:45:42;16.57;;;16.02;;
54328;SDS011;40710;51.120;13.136;2022-12-07T07:48:06;16.26;;;15.68;;
54328;SDS011;40710;51.120;13.136;2022-12-07T07:50:31;16.85;;;16.11;;
54328;SDS011;40710;51.120;13.136;2022-12-07T07:52:56;16.39;;;15.66;;
54328;SDS011;40710;51.120;13.136;2022-12-07T07:55:21;16.88;;;16.21;;
54328;SDS011;40710;51.120;13.136;2022-12-07T07:57:46;17.33;;;16.65;;
54328;SDS011;40710;51.120;13.136;2022-12-07T08:00:12;17.48;;;16.74;;
54328;SDS011;40710;51.120;13.136;2022-12-07T08:02:39;19.34;;;18.71;;
54328;SDS011;40710;51.120;13.136;2022-12-07T08:05:04;17.67;;;17.10;;
54328;SDS011;40710;51.120;13.136;2022-12-07T08:07:29;17.55;;;16.74;;
54328;SDS011;40710;51.120;13.136;2022-12-07T08:09:53;17.09;;;16.43;;
54328;SDS011;40710;51.120;13.136;2022-12-07T08:12:18;17.87;;;17.05;;
54328;SDS011;40710;51.120;13.136;2022-12-07T08:14:43;17.80;;;17.03;;
54328;SDS011;40710;51.120;13.136;2022-12-07T08:17:07;18.39;;;17.40;;
54328;SDS011;40710;51.120;13.136;2022-12-07T08:19:32;17.63;;;16.96;;
54328;SDS011;40710;51.120;13.136;2022-12-07T08:21:57;17.50;;;16.98;;
54328;SDS011;40710;51.120;13.136;2022-12-07T08:24:22;18.93;;;18.26;;
54328;SDS011;40710;51.120;13.136;2022-12-07T08:26:47;21.22;;;20.43;;
54328;SDS011;40710;51.120;13.136;2022-12-07T08:29:12;19.00;;;18.07;;
54328;SDS011;40710;51.120;13.136;2022-12-07T08:31:37;17.22;;;16.63;;
54328;SDS011;40710;51.120;13.136;2022-12-07T08:34:02;16.90;;;16.30;;
54328;SDS011;40710;51.120;13.136;2022-12-07T08:36:26;17.00;;;16.35;;
54328;SDS011;40710;51.120;13.136;2022-12-07T08:38:51;17.25;;;16.57;;
54328;SDS011;40710;51.120;13.136;2022-12-07T08:41:16;16.89;;;16.21;;
54328;SDS011;40710;51.120;13.136;2022-12-07T08:43:41;16.56;;;15.76;;
54328;SDS011;40710;51.120;13.136;2022-12-07T08:46:06;16.13;;;15.33;;
54328;SDS011;40710;51.120;13.136;2022-12-07T08:48:36;16.85;;;16.13;;
54328;SDS011;40710;51.120;13.136;2022-12-07T08:51:09;17.10;;;16.22;;
54328;SDS011;40710;51.120;13.136;2022-12-07T08:53:36;16.49;;;15.81;;
54328;SDS011;40710;51.120;13.136;2022-12-07T08:56:02;16.57;;;15.77;;
54328;SDS011;40710;51.120;13.136;2022-12-07T08:58:28;16.05;;;15.38;;
54328;SDS011;40710;51.120;13.136;2022-12-07T09:00:52;15.20;;;14.66;;
54328;SDS011;40710;51.120;13.136;2022-12-07T09:03:17;15.07;;;14.49;;
54328;SDS011;40710;51.120;13.136;2022-12-07T09:05:42;15.29;;;14.58;;
54328;SDS011;40710;51.120;13.136;2022-12-07T09:08:06;14.65;;;14.00;;
54328;SDS011;40710;51.120;13.136;2022-12-07T09:10:32;14.41;;;13.90;;
54328;SDS011;40710;51.120;13.136;2022-12-07T09:12:57;15.29;;;14.72;;
54328;SDS011;40710;51.120;13.136;2022-12-07T09:15:24;15.58;;;14.90;;
54328;SDS011;40710;51.120;13.136;2022-12-07T09:17:49;15.57;;;14.80;;
54328;SDS011;40710;51.120;13.136;2022-12-07T09:20:15;15.65;;;15.06;;
54328;SDS011;40710;51.120;13.136;2022-12-07T09:22:40;14.58;;;14.01;;
54328;SDS011;40710;51.120;13.136;2022-12-07T09:25:05;13.88;;;13.50;;
54328;SDS011;40710;51.120;13.136;2022-12-07T09:27:30;14.35;;;13.96;;
54328;SDS011;40710;51.120;13.136;2022-12-07T09:29:55;14.88;;;14.33;;
54328;SDS011;40710;51.120;13.136;2022-12-07T09:32:19;14.76;;;14.18;;
54328;SDS011;40710;51.120;13.136;2022-12-07T09:34:44;14.31;;;13.77;;
54328;SDS011;40710;51.120;13.136;2022-12-07T09:37:08;14.29;;;13.83;;
54328;SDS011;40710;51.120;13.136;2022-12-07T09:39:33;14.14;;;13.59;;
54328;SDS011;40710;51.120;13.136;2022-12-07T09:41:58;13.99;;;13.49;;
54328;SDS011;40710;51.120;13.136;2022-12-07T09:44:28;13.97;;;13.53;;
54328;SDS011;40710;51.120;13.136;2022-12-07T09:46:52;13.49;;;13.01;;
54328;SDS011;40710;51.120;13.136;2022-12-07T09:49:18;13.82;;;13.19;;
54328;SDS011;40710;51.120;13.136;2022-12-07T09:51:46;13.78;;;13.25;;
54328;SDS011;40710;51.120;13.136;2022-12-07T09:54:13;13.16;;;12.72;;
54328;SDS011;40710;51.120;13.136;2022-12-07T09:56:39;13.27;;;12.73;;
54328;SDS011;40710;51.120;13.136;2022-12-07T09:59:04;13.17;;;12.69;;
54328;SDS011;40710;51.120;13.136;2022-12-07T10:01:30;12.63;;;12.21;;
54328;SDS011;40710;51.120;13.136;2022-12-07T10:04:09;12.89;;;12.40;;
54328;SDS011;40710;51.120;13.136;2022-12-07T10:06:39;13.22;;;12.72;;
54328;SDS011;40710;51.120;13.136;2022-12-07T10:09:22;12.82;;;12.38;;
54328;SDS011;40710;51.120;13.136;2022-12-07T10:12:08;13.53;;;13.05;;
54328;SDS011;40710;51.120;13.136;2022-12-07T10:14:37;13.23;;;12.83;;
54328;SDS011;40710;51.120;13.136;2022-12-07T10:19:52;14.06;;;13.60;;
54328;SDS011;40710;51.120;13.136;2022-12-07T10:22:35;13.97;;;13.45;;
54328;SDS011;40710;51.120;13.136;2022-12-07T10:25:07;13.82;;;13.20;;
54328;SDS011;40710;51.120;13.136;2022-12-07T10:27:33;13.53;;;13.09;;
54328;SDS011;40710;51.120;13.136;2022-12-07T10:29:58;13.02;;;12.63;;
54328;SDS011;40710;51.120;13.136;2022-12-07T10:32:33;13.83;;;13.44;;
54328;SDS011;40710;51.120;13.136;2022-12-07T10:37:45;12.60;;;12.16;;
54328;SDS011;40710;51.120;13.136;2022-12-07T10:40:52;12.55;;;12.07;;
54328;SDS011;40710;51.120;13.136;2022-12-07T10:43:22;13.12;;;12.68;;
54328;SDS011;40710;51.120;13.136;2022-12-07T10:46:05;11.98;;;11.74;;
54328;SDS011;40710;51.120;13.136;2022-12-07T10:51:35;12.45;;;12.09;;
54328;SDS011;40710;51.120;13.136;2022-12-07T10:54:13;11.67;;;11.34;;
54328;SDS011;40710;51.120;13.136;2022-12-07T10:56:54;11.62;;;11.21;;
54328;SDS011;40710;51.120;13.136;2022-12-07T11:05:15;11.81;;;11.48;;
54328;SDS011;40710;51.120;13.136;2022-12-07T11:08:12;12.23;;;11.95;;
54328;SDS011;40710;51.120;13.136;2022-12-07T11:10:48;12.33;;;11.96;;
54328;SDS011;40710;51.120;13.136;2022-12-07T11:19:50;11.26;;;10.91;;
54328;SDS011;40710;51.120;13.136;2022-12-07T11:22:05;12.51;;;12.15;;
54328;SDS011;40710;51.120;13.136;2022-12-07T11:24:48;12.47;;;12.13;;
54328;SDS011;40710;51.120;13.136;2022-12-07T11:30:03;10.86;;;10.48;;
54328;SDS011;40710;51.120;13.136;2022-12-07T11:35:16;9.77;;;9.55;;
54328;SDS011;40710;51.120;13.136;2022-12-07T11:38:16;9.08;;;8.92;;
54328;SDS011;40710;51.120;13.136;2022-12-07T11:40:51;8.67;;;8.45;;
54328;SDS011;40710;51.120;13.136;2022-12-07T11:43:36;8.69;;;8.46;;
54328;SDS011;40710;51.120;13.136;2022-12-07T11:46:06;8.61;;;8.47;;
54328;SDS011;40710;51.120;13.136;2022-12-07T11:48:38;8.89;;;8.74;;
54328;SDS011;40710;51.120;13.136;2022-12-07T11:51:10;8.49;;;8.41;;
54328;SDS011;40710;51.120;13.136;2022-12-07T11:53:44;8.33;;;8.18;;
54328;SDS011;40710;51.120;13.136;2022-12-07T11:56:20;8.25;;;8.13;;
54328;SDS011;40710;51.120;13.136;2022-12-07T12:04:00;8.51;;;8.39;;
54328;SDS011;40710;51.120;13.136;2022-12-07T12:06:33;8.37;;;8.19;;
54328;SDS011;40710;51.120;13.136;2022-12-07T12:09:02;8.77;;;8.50;;
54328;SDS011;40710;51.120;13.136;2022-12-07T12:11:36;8.26;;;8.07;;
54328;SDS011;40710;51.120;13.136;2022-12-07T12:17:15;7.49;;;7.35;;
54328;SDS011;40710;51.120;13.136;2022-12-07T12:20:19;7.91;;;7.73;;
54328;SDS011;40710;51.120;13.136;2022-12-07T12:22:53;8.10;;;7.85;;
54328;SDS011;40710;51.120;13.136;2022-12-07T12:25:47;7.44;;;7.41;;
54328;SDS011;40710;51.120;13.136;2022-12-07T12:28:51;7.05;;;7.05;;
54328;SDS011;40710;51.120;13.136;2022-12-07T12:31:41;7.59;;;7.59;;
54328;SDS011;40710;51.120;13.136;2022-12-07T12:42:50;7.47;;;7.27;;
54328;SDS011;40710;51.120;13.136;2022-12-07T12:45:34;6.97;;;6.76;;
54328;SDS011;40710;51.120;13.136;2022-12-07T12:48:28;7.71;;;7.59;;
54328;SDS011;40710;51.120;13.136;2022-12-07T12:51:38;11.69;;;11.38;;
54328;SDS011;40710;51.120;13.136;2022-12-07T12:54:09;7.10;;;6.95;;
54328;SDS011;40710;51.120;13.136;2022-12-07T12:59:42;6.86;;;6.70;;
54328;SDS011;40710;51.120;13.136;2022-12-07T13:02:29;9.54;;;9.35;;
54328;SDS011;40710;51.120;13.136;2022-12-07T13:05:21;6.62;;;6.47;;
54328;SDS011;40710;51.120;13.136;2022-12-07T13:07:55;6.03;;;5.93;;
54328;SDS011;40710;51.120;13.136;2022-12-07T13:20:56;5.96;;;5.87;;
54328;SDS011;40710;51.120;13.136;2022-12-07T13:23:25;11.60;;;11.34;;
54328;SDS011;40710;51.120;13.136;2022-12-07T13:26:01;7.01;;;6.86;;
54328;SDS011;40710;51.120;13.136;2022-12-07T13:28:42;5.51;;;5.42;;
54328;SDS011;40710;51.120;13.136;2022-12-07T13:31:15;11.94;;;11.66;;
54328;SDS011;40710;51.120;13.136;2022-12-07T13:33:47;8.33;;;8.15;;
54328;SDS011;40710;51.120;13.136;2022-12-07T13:36:19;5.27;;;5.20;;
54328;SDS011;40710;51.120;13.136;2022-12-07T13:38:56;5.35;;;5.32;;
54328;SDS011;40710;51.120;13.136;2022-12-07T13:41:24;5.18;;;5.13;;
54328;SDS011;40710;51.120;13.136;2022-12-07T13:43:59;5.24;;;5.23;;
54328;SDS011;40710;51.120;13.136;2022-12-07T13:47:11;4.82;;;4.77;;
54328;SDS011;40710;51.120;13.136;2022-12-07T13:49:37;4.72;;;4.70;;
54328;SDS011;40710;51.120;13.136;2022-12-07T13:54:44;4.35;;;4.32;;
54328;SDS011;40710;51.120;13.136;2022-12-07T13:57:10;3.77;;;3.77;;
54328;SDS011;40710;51.120;13.136;2022-12-07T13:59:35;3.89;;;3.88;;
54328;SDS011;40710;51.120;13.136;2022-12-07T14:02:16;5.82;;;5.80;;
54328;SDS011;40710;51.120;13.136;2022-12-07T14:04:49;3.92;;;3.85;;
54328;SDS011;40710;51.120;13.136;2022-12-07T14:07:20;4.87;;;4.84;;
54328;SDS011;40710;51.120;13.136;2022-12-07T14:09:53;12.51;;;12.21;;
54328;SDS011;40710;51.120;13.136;2022-12-07T14:12:23;7.29;;;7.02;;
54328;SDS011;40710;51.120;13.136;2022-12-07T14:14:49;3.28;;;3.23;;
54328;SDS011;40710;51.120;13.136;2022-12-07T14:17:21;3.04;;;3.01;;
54328;SDS011;40710;51.120;13.136;2022-12-07T14:19:52;3.48;;;3.45;;
54328;SDS011;40710;51.120;13.136;2022-12-07T14:22:24;3.56;;;3.53;;
54328;SDS011;40710;51.120;13.136;2022-12-07T14:24:51;3.67;;;3.63;;
54328;SDS011;40710;51.120;13.136;2022-12-07T14:27:35;3.67;;;3.63;;
54328;SDS011;40710;51.120;13.136;2022-12-07T14:30:00;3.54;;;3.53;;
54328;SDS011;40710;51.120;13.136;2022-12-07T14:32:27;3.46;;;3.45;;
54328;SDS011;40710;51.120;13.136;2022-12-07T14:34:58;3.38;;;3.38;;
54328;SDS011;40710;51.120;13.136;2022-12-07T14:37:25;3.00;;;2.99;;
54328;SDS011;40710;51.120;13.136;2022-12-07T14:39:50;3.09;;;3.09;;
54328;SDS011;40710;51.120;13.136;2022-12-07T14:42:14;2.86;;;2.86;;
54328;SDS011;40710;51.120;13.136;2022-12-07T14:44:39;3.06;;;3.06;;
54328;SDS011;40710;51.120;13.136;2022-12-07T14:47:04;2.55;;;2.55;;
54328;SDS011;40710;51.120;13.136;2022-12-07T14:49:28;2.26;;;2.26;;
54328;SDS011;40710;51.120;13.136;2022-12-07T14:51:53;2.39;;;2.38;;
54328;SDS011;40710;51.120;13.136;2022-12-07T14:54:18;2.35;;;2.35;;
54328;SDS011;40710;51.120;13.136;2022-12-07T14:56:45;2.39;;;2.39;;
54328;SDS011;40710;51.120;13.136;2022-12-07T14:59:13;2.58;;;2.58;;
54328;SDS011;40710;51.120;13.136;2022-12-07T15:01:38;2.90;;;2.88;;
54328;SDS011;40710;51.120;13.136;2022-12-07T15:04:02;2.87;;;2.86;;
54328;SDS011;40710;51.120;13.136;2022-12-07T15:06:27;2.99;;;2.97;;
54328;SDS011;40710;51.120;13.136;2022-12-07T15:08:51;2.85;;;2.83;;
54328;SDS011;40710;51.120;13.136;2022-12-07T15:11:16;3.00;;;2.97;;
54328;SDS011;40710;51.120;13.136;2022-12-07T15:13:42;2.86;;;2.84;;
54328;SDS011;40710;51.120;13.136;2022-12-07T15:16:26;3.13;;;3.12;;
54328;SDS011;40710;51.120;13.136;2022-12-07T15:18:50;4.72;;;4.68;;
54328;SDS011;40710;51.120;13.136;2022-12-07T15:21:15;5.46;;;5.40;;
54328;SDS011;40710;51.120;13.136;2022-12-07T15:23:40;3.31;;;3.28;;
54328;SDS011;40710;51.120;13.136;2022-12-07T15:26:05;3.90;;;3.86;;
54328;SDS011;40710;51.120;13.136;2022-12-07T15:28:30;3.51;;;3.48;;
54328;SDS011;40710;51.120;13.136;2022-12-07T15:30:54;3.35;;;3.34;;
54328;SDS011;40710;51.120;13.136;2022-12-07T15:33:19;3.57;;;3.55;;
54328;SDS011;40710;51.120;13.136;2022-12-07T15:35:44;4.30;;;4.27;;
54328;SDS011;40710;51.120;13.136;2022-12-07T15:38:09;16.78;;;16.35;;
54328;SDS011;40710;51.120;13.136;2022-12-07T15:40:34;5.23;;;5.03;;
54328;SDS011;40710;51.120;13.136;2022-12-07T15:42:59;3.43;;;3.35;;
54328;SDS011;40710;51.120;13.136;2022-12-07T15:45:23;3.41;;;3.37;;
54328;SDS011;40710;51.120;13.136;2022-12-07T15:47:48;3.17;;;3.15;;
54328;SDS011;40710;51.120;13.136;2022-12-07T15:50:14;3.18;;;3.16;;
54328;SDS011;40710;51.120;13.136;2022-12-07T15:52:40;3.55;;;3.54;;
54328;SDS011;40710;51.120;13.136;2022-12-07T15:55:05;3.41;;;3.38;;
54328;SDS011;40710;51.120;13.136;2022-12-07T15:57:34;3.15;;;3.14;;
54328;SDS011;40710;51.120;13.136;2022-12-07T16:00:01;3.08;;;3.06;;